This is the latest recevied weather packets stored in our database for station/object N8WJW. If no packets are shown the sender has not sent any weather packets the latest 10 day(s).
| Time | Temp. | Humidity | Pressure | Rain* | Wind** | Luminosity | Snow |
|---|---|---|---|---|---|---|---|
| 1778078965 | 9.44° C | 99% | 1011.5 hPa | 0 mm | - | 241 W/m² | - |
| 1778078661 | 8.89° C | 99% | 1011.7 hPa | 0 mm | - | 239 W/m² | - |
| 1778078360 | 8.89° C | 99% | 1011.4 hPa | 0 mm | - | 250 W/m² | - |
| 1778078056 | 8.89° C | 99% | 1011.4 hPa | 0 mm | - | 228 W/m² | - |
| 1778077755 | 8.33° C | 99% | 1011.5 hPa | 0 mm | - | 231 W/m² | - |
| 1778077453 | 7.78° C | 99% | 1011.4 hPa | 0 mm | - | 211 W/m² | - |
| 1778077150 | 8.33° C | 99% | 1011.7 hPa | 0 mm | - | 191 W/m² | - |
| 1778076848 | 8.33° C | 99% | 1011.3 hPa | 0 mm | - | 190 W/m² | - |
| 1778076546 | 8.33° C | 99% | 1011.4 hPa | 0 mm | - | 187 W/m² | - |
| 1778076243 | 8.33° C | 99% | 1011.5 hPa | 0 mm | - | 188 W/m² | - |
| 1778075940 | 8.33° C | 99% | 1011.4 hPa | 0 mm | - | 156 W/m² | - |
| 1778075636 | 7.78° C | 99% | 1011.4 hPa | 0 mm | - | 132 W/m² | - |
| 1778075333 | 7.78° C | 99% | 1011.3 hPa | 0 mm | - | 106 W/m² | - |
| 1778075029 | 7.22° C | 99% | 1011.5 hPa | 0 mm | - | 82 W/m² | - |
| 1778074726 | 7.78° C | 99% | 1011.6 hPa | 0 mm | - | 83 W/m² | - |
| 1778074423 | 7.78° C | 99% | 1011.2 hPa | 0 mm | - | 77 W/m² | - |
| 1778074119 | 7.78° C | 99% | 1011 hPa | 0 mm | - | 82 W/m² | - |
| 1778073817 | 7.22° C | 99% | 1011 hPa | 0 mm | - | 73 W/m² | - |
| 1778073515 | 7.78° C | 99% | 1010.8 hPa | 0 mm | - | 95 W/m² | - |
| 1778073211 | 7.22° C | 99% | 1010.8 hPa | 0 mm | - | 78 W/m² | - |
| 1778072908 | 7.78° C | 99% | 1010.5 hPa | 0 mm | - | 81 W/m² | - |
| 1778072604 | 7.78° C | 99% | 1010.8 hPa | 0 mm | - | 53 W/m² | - |
| 1778072302 | 7.22° C | 99% | 1010.3 hPa | 0 mm | - | 94 W/m² | - |
| 1778072000 | 7.22° C | 99% | 1010.2 hPa | 0 mm | - | 106 W/m² | - |
| 1778071699 | 7.22° C | 99% | 1010.3 hPa | 0 mm | - | 84 W/m² | - |
* Rain latest hour (hover to see other rain measurements)
** Current wind speed in m/s (hover to see current wind gust speed)